Time;durP1;ratioP1;P1;durP2;ratioP2;P2;SDS_P1;SDS_P2;PMS_P1;PMS_P2;Temp;Humidity;BMP_temperature;BMP_pressure;BME280_temperature;BME280_humidity;BME280_pressure;Samples;Min_cycle;Max_cycle;Signal;HPM_P1;HPM_P2
2022/04/15 00:02:03;;;;;;;25.40;21.77;;;;;;;-148.33;100.00;56587.81;5048004;28;20029;-57
2022/04/15 00:04:30;;;;;;;28.52;23.17;;;;;;;-148.33;100.00;56587.81;5048250;28;20025;-57
2022/04/15 00:06:56;;;;;;;24.35;21.73;;;;;;;-148.33;100.00;56587.81;5048841;28;20029;-56
2022/04/15 00:09:22;;;;;;;22.90;20.70;;;;;;;-148.33;100.00;56587.81;5048180;28;20033;-56
2022/04/15 00:11:47;;;;;;;21.23;19.13;;;;;;;-148.33;100.00;56587.81;5048117;28;20025;-55
2022/04/15 00:14:12;;;;;;;22.30;20.13;;;;;;;-148.33;100.00;56587.81;5047938;28;20428;-57
2022/04/15 00:16:40;;;;;;;21.08;18.90;;;;;;;-148.33;100.00;56587.81;5048066;28;20025;-56
2022/04/15 00:19:05;;;;;;;20.02;18.13;;;;;;;-148.33;100.00;56587.81;5047965;28;20104;-56
2022/04/15 00:21:30;;;;;;;19.05;17.02;;;;;;;-148.33;100.00;56587.81;5049819;28;20104;-56
2022/04/15 00:23:57;;;;;;;20.52;18.20;;;;;;;-148.33;100.00;56587.81;5052045;28;20110;-56
2022/04/15 00:26:22;;;;;;;20.65;18.42;;;;;;;-148.33;100.00;56587.81;5051633;28;20021;-56
2022/04/15 00:28:48;;;;;;;20.10;17.98;;;;;;;-148.33;100.00;56587.81;5051835;28;20051;-57
2022/04/15 00:31:13;;;;;;;20.45;18.33;;;;;;;-148.33;100.00;56587.81;5052078;28;20028;-57
2022/04/15 00:33:38;;;;;;;20.38;18.38;;;;;;;-148.33;100.00;56587.81;5051825;28;20398;-55
2022/04/15 00:36:03;;;;;;;21.88;18.85;;;;;;;-148.33;100.00;56587.81;5051886;28;20032;-55
2022/04/15 00:38:29;;;;;;;24.08;19.60;;;;;;;-148.33;100.00;56587.81;5051975;28;20074;-55
2022/04/15 00:40:54;;;;;;;23.75;21.13;;;;;;;-148.33;100.00;56587.81;5050840;28;20029;-56
2022/04/15 00:43:19;;;;;;;23.95;20.80;;;;;;;-148.33;100.00;56587.81;5051477;28;20054;-56
2022/04/15 00:45:45;;;;;;;21.60;19.50;;;;;;;-148.33;100.00;56587.81;5051516;28;20366;-56
2022/04/15 00:48:13;;;;;;;22.65;20.15;;;;;;;-148.33;100.00;56587.81;5051771;28;20503;-56
2022/04/15 00:50:39;;;;;;;21.75;19.55;;;;;;;-148.33;100.00;56587.81;5044086;28;20048;-57
2022/04/15 00:53:10;;;;;;;23.08;20.52;;;;;;;-148.33;100.00;56587.81;5031832;28;20075;-57
2022/04/15 00:55:37;;;;;;;22.40;20.05;;;;;;;-148.33;100.00;56587.81;5031504;28;20025;-55
2022/04/15 00:58:04;;;;;;;23.58;21.05;;;;;;;-148.33;100.00;56587.81;5031513;28;20021;-55
2022/04/15 01:00:31;;;;;;;22.52;20.15;;;;;;;-148.33;100.00;56587.81;5029538;28;20029;-56
2022/04/15 01:02:58;;;;;;;24.40;20.80;;;;;;;-148.33;100.00;56587.81;5031838;28;20377;-57
2022/04/15 01:05:25;;;;;;;22.90;20.55;;;;;;;-148.33;100.00;56587.81;5031753;28;20389;-56
2022/04/15 01:07:55;;;;;;;23.95;20.45;;;;;;;-148.33;100.00;56587.81;5031533;28;20017;-56
2022/04/15 01:10:22;;;;;;;24.30;21.70;;;;;;;-148.33;100.00;56587.81;5031741;28;20021;-56
2022/04/15 01:12:54;;;;;;;24.02;21.52;;;;;;;-148.33;100.00;56587.81;5030722;28;20033;-56
2022/04/15 01:15:22;;;;;;;22.33;20.00;;;;;;;-148.33;100.00;56587.81;5039423;28;20039;-56
2022/04/15 01:17:47;;;;;;;23.45;20.95;;;;;;;-148.33;100.00;56587.81;5050286;28;20025;-56
2022/04/15 01:20:13;;;;;;;24.77;22.23;;;;;;;-148.33;100.00;56587.81;5036598;28;20052;-57
2022/04/15 01:22:38;;;;;;;25.50;22.38;;;;;;;-148.33;100.00;56587.81;5030673;28;20025;-58
2022/04/15 01:25:05;;;;;;;24.40;21.80;;;;;;;-148.33;100.00;56587.81;5032941;28;20083;-56
2022/04/15 01:27:38;;;;;;;23.70;21.25;;;;;;;-148.33;100.00;56587.81;5050551;28;20025;-57
2022/04/15 01:30:05;;;;;;;25.35;22.48;;;;;;;-148.33;100.00;56587.81;5046626;28;20526;-56
2022/04/15 01:32:31;;;;;;;25.30;22.83;;;;;;;-148.33;100.00;56587.81;5047850;28;20044;-56
2022/04/15 01:34:56;;;;;;;24.50;22.00;;;;;;;-148.33;100.00;56587.81;5049973;28;20032;-57
2022/04/15 01:37:23;;;;;;;24.85;21.08;;;;;;;-148.33;100.00;56587.81;5050915;28;20025;-56
2022/04/15 01:39:49;;;;;;;23.60;21.30;;;;;;;-148.33;100.00;56587.81;5050136;28;20056;-56
2022/04/15 01:42:14;;;;;;;23.70;21.33;;;;;;;-148.33;100.00;56587.81;5050540;28;20025;-57
2022/04/15 01:44:41;;;;;;;24.98;22.48;;;;;;;-148.33;100.00;56587.81;5050240;28;20442;-57
2022/04/15 01:47:07;;;;;;;24.83;22.33;;;;;;;-148.33;100.00;56587.81;5050792;28;20108;-56
2022/04/15 01:49:33;;;;;;;26.05;20.98;;;;;;;-148.33;100.00;56587.81;5050735;28;20055;-56
2022/04/15 01:51:58;;;;;;;23.67;21.25;;;;;;;-148.33;100.00;56587.81;5050240;28;20021;-56
2022/04/15 01:54:23;;;;;;;26.20;21.65;;;;;;;-148.33;100.00;56587.81;5050421;28;20100;-57
2022/04/15 01:56:49;;;;;;;25.50;22.67;;;;;;;-148.33;100.00;56587.81;5049201;28;20124;-57
2022/04/15 01:59:14;;;;;;;24.17;21.75;;;;;;;-148.33;100.00;56587.81;5050538;28;20180;-55
2022/04/15 02:01:39;;;;;;;28.80;23.88;;;;;;;-148.33;100.00;56587.81;5050421;28;20333;-57
2022/04/15 02:04:05;;;;;;;25.95;23.25;;;;;;;-148.33;100.00;56587.81;5049568;28;20025;-56
2022/04/15 02:06:30;;;;;;;24.23;21.60;;;;;;;-148.33;100.00;56587.81;5050225;28;20455;-55
2022/04/15 02:08:55;;;;;;;25.70;22.98;;;;;;;-148.33;100.00;56587.81;5050022;28;20537;-55
2022/04/15 02:11:21;;;;;;;25.10;22.40;;;;;;;-148.33;100.00;56587.81;5049706;28;20041;-57
2022/04/15 02:13:46;;;;;;;25.30;22.65;;;;;;;-148.33;100.00;56587.81;5049683;28;20021;-57
2022/04/15 02:16:12;;;;;;;25.38;22.83;;;;;;;-148.33;100.00;56587.81;5049832;28;20052;-56
2022/04/15 02:18:37;;;;;;;24.23;21.23;;;;;;;-148.33;100.00;56587.81;5049040;28;20502;-57
2022/04/15 02:21:03;;;;;;;26.63;21.75;;;;;;;-148.33;100.00;56587.81;5048675;28;20039;-55
2022/04/15 02:23:28;;;;;;;23.67;21.27;;;;;;;-148.33;100.00;56587.81;5049838;28;20033;-56
2022/04/15 02:25:53;;;;;;;23.02;20.77;;;;;;;-148.33;100.00;56587.81;5049438;28;20083;-57
2022/04/15 02:28:19;;;;;;;22.58;20.17;;;;;;;-148.33;100.00;56587.81;5049156;28;20519;-57
2022/04/15 02:30:47;;;;;;;23.77;21.35;;;;;;;-148.33;100.00;56587.81;5049491;28;20028;-55
2022/04/15 02:33:13;;;;;;;23.60;21.17;;;;;;;-148.33;100.00;56587.81;5049035;28;20124;-55
2022/04/15 02:35:38;;;;;;;25.00;22.40;;;;;;;-148.33;100.00;56587.81;5049237;28;20123;-56
2022/04/15 02:38:04;;;;;;;23.85;21.35;;;;;;;-148.33;100.00;56587.81;5046134;28;20087;-55
2022/04/15 02:40:29;;;;;;;25.55;21.67;;;;;;;-148.33;100.00;56587.81;5036554;28;20044;-56
2022/04/15 02:42:54;;;;;;;24.27;21.52;;;;;;;-148.33;100.00;56587.81;5027900;28;20083;-56
2022/04/15 02:45:21;;;;;;;22.40;20.02;;;;;;;-148.33;100.00;56587.81;5028828;28;20036;-53
2022/04/15 02:47:47;;;;;;;23.88;21.33;;;;;;;-148.33;100.00;56587.81;5029808;28;20136;-56
2022/04/15 02:50:12;;;;;;;23.65;21.25;;;;;;;-148.33;100.00;56587.81;5029285;28;20444;-55
2022/04/15 02:52:38;;;;;;;23.23;20.83;;;;;;;-148.33;100.00;56587.81;5028724;28;20382;-55
2022/04/15 02:55:04;;;;;;;24.23;20.03;;;;;;;-148.33;100.00;56587.81;5029156;28;20108;-56
2022/04/15 02:57:29;;;;;;;23.10;19.80;;;;;;;-148.33;100.00;56587.81;5029490;28;20034;-55
2022/04/15 02:59:54;;;;;;;21.80;19.50;;;;;;;-148.33;100.00;56587.81;5027776;28;20029;-56
2022/04/15 03:02:20;;;;;;;22.20;19.67;;;;;;;-148.33;100.00;56587.81;5029023;28;20430;-56
2022/04/15 03:04:45;;;;;;;20.75;18.55;;;;;;;-148.33;100.00;56587.81;5029225;28;20064;-56
2022/04/15 03:07:10;;;;;;;21.63;19.03;;;;;;;-148.33;100.00;56587.81;5029330;28;20091;-56
2022/04/15 03:09:35;;;;;;;22.40;19.25;;;;;;;-148.33;100.00;56587.81;5028908;28;20040;-56
2022/04/15 03:12:01;;;;;;;22.75;19.45;;;;;;;-148.33;100.00;56587.81;5028655;28;20452;-54
2022/04/15 03:14:26;;;;;;;23.07;20.77;;;;;;;-148.33;100.00;56587.81;5029003;28;20124;-56
2022/04/15 03:16:51;;;;;;;22.83;20.43;;;;;;;-148.33;100.00;56587.81;5027749;28;20030;-55
2022/04/15 03:19:17;;;;;;;27.93;22.23;;;;;;;-148.33;100.00;56587.81;5029242;28;20055;-56
2022/04/15 03:21:42;;;;;;;23.50;20.47;;;;;;;-148.33;100.00;56587.81;5028976;28;20071;-55
2022/04/15 03:24:07;;;;;;;22.67;20.13;;;;;;;-148.33;100.00;56587.81;5028969;28;20033;-55
2022/04/15 03:26:33;;;;;;;24.63;21.33;;;;;;;-148.33;100.00;56587.81;5029222;28;20484;-55
2022/04/15 03:28:58;;;;;;;24.30;20.65;;;;;;;-148.33;100.00;56587.81;5028765;28;20021;-55
2022/04/15 03:31:23;;;;;;;23.00;20.10;;;;;;;-148.33;100.00;56587.81;5028059;28;20034;-55
2022/04/15 03:33:49;;;;;;;22.97;20.30;;;;;;;-148.33;100.00;56587.81;5028972;28;20036;-56
2022/04/15 03:36:15;;;;;;;21.77;18.60;;;;;;;-148.33;100.00;56587.81;5028644;28;20083;-54
2022/04/15 03:38:40;;;;;;;21.53;18.03;;;;;;;-148.33;100.00;56587.81;5028608;28;20347;-55
2022/04/15 03:41:06;;;;;;;21.50;18.60;;;;;;;-148.33;100.00;56587.81;5028699;28;20465;-56
2022/04/15 03:43:32;;;;;;;20.67;18.30;;;;;;;-148.33;100.00;56587.81;5028406;28;20033;-53
2022/04/15 03:45:57;;;;;;;20.73;18.50;;;;;;;-148.33;100.00;56587.81;5027036;28;20026;-50
2022/04/15 03:48:23;;;;;;;20.83;18.13;;;;;;;-148.33;100.00;56587.81;5028096;28;20036;-54
2022/04/15 03:50:48;;;;;;;20.80;18.10;;;;;;;-148.33;100.00;56587.81;5028090;28;20021;-55
2022/04/15 03:53:13;;;;;;;20.30;18.10;;;;;;;-148.33;100.00;56587.81;5028474;28;20037;-55
2022/04/15 03:55:38;;;;;;;19.67;15.80;;;;;;;-148.33;100.00;56587.81;5027366;28;20111;-55
2022/04/15 03:58:04;;;;;;;22.50;18.40;;;;;;;-148.33;100.00;56587.81;5028425;28;20033;-55
2022/04/15 04:00:29;;;;;;;18.87;16.83;;;;;;;-148.33;100.00;56587.81;5028194;28;20059;-56
2022/04/15 04:02:55;;;;;;;19.93;17.07;;;;;;;-148.33;100.00;56587.81;5028156;28;20025;-57
2022/04/15 04:05:21;;;;;;;21.93;17.50;;;;;;;-148.33;100.00;56587.81;5027964;28;20018;-55
2022/04/15 04:07:46;;;;;;;20.00;17.27;;;;;;;-148.33;100.00;56587.81;5028105;28;20033;-56
2022/04/15 04:10:13;;;;;;;20.60;16.80;;;;;;;-148.33;100.00;56587.81;5028069;28;20032;-55
2022/04/15 04:12:39;;;;;;;26.00;20.93;;;;;;;-148.33;100.00;56587.81;5028237;28;20033;-56
2022/04/15 04:15:06;;;;;;;30.40;22.93;;;;;;;-148.33;100.00;56587.81;5027682;28;20021;-56
2022/04/15 04:17:31;;;;;;;30.50;25.40;;;;;;;-148.33;100.00;56587.81;5028444;28;20116;-56
2022/04/15 04:19:57;;;;;;;32.30;27.70;;;;;;;-148.33;100.00;56587.81;5028297;28;20113;-57
2022/04/15 04:22:29;;;;;;;35.20;30.00;;;;;;;-148.33;100.00;56587.81;5027503;28;20464;-56
2022/04/15 04:24:54;;;;;;;66.75;31.42;;;;;;;-148.33;100.00;56587.81;5027742;28;20044;-57
2022/04/15 04:27:19;;;;;;;40.17;32.65;;;;;;;-148.33;100.00;56587.81;5028209;28;20022;-57
2022/04/15 04:29:45;;;;;;;94.17;32.40;;;;;;;-148.33;100.00;56587.81;5027890;28;20393;-56
2022/04/15 04:32:10;;;;;;;36.58;30.48;;;;;;;-148.33;100.00;56587.81;5027601;28;20115;-55
2022/04/15 04:34:35;;;;;;;35.97;29.60;;;;;;;-148.33;100.00;56587.81;5026911;28;20060;-56
2022/04/15 04:37:01;;;;;;;35.67;28.50;;;;;;;-148.33;100.00;56587.81;5026032;28;20039;-56
2022/04/15 04:39:29;;;;;;;41.90;27.48;;;;;;;-148.33;100.00;56587.81;5025617;28;20120;-56
2022/04/15 04:41:55;;;;;;;31.67;27.52;;;;;;;-148.33;100.00;56587.81;5026454;28;20044;-57
2022/04/15 04:44:21;;;;;;;31.08;26.25;;;;;;;-148.33;100.00;56587.81;5025816;28;20033;-56
2022/04/15 04:46:46;;;;;;;46.50;26.77;;;;;;;-148.33;100.00;56587.81;5025648;28;20393;-53
2022/04/15 04:49:11;;;;;;;32.97;26.95;;;;;;;-148.33;100.00;56587.81;5029837;28;20024;-57
2022/04/15 04:51:37;;;;;;;30.25;26.83;;;;;;;-148.33;100.00;56587.81;5028512;28;20466;-57
2022/04/15 04:54:02;;;;;;;34.20;27.30;;;;;;;-148.33;100.00;56587.81;5026322;28;20029;-56
2022/04/15 04:56:27;;;;;;;31.27;24.55;;;;;;;-148.33;100.00;56587.81;5035672;28;20417;-57
2022/04/15 04:58:53;;;;;;;35.83;25.60;;;;;;;-148.33;100.00;56587.81;5026478;28;20079;-56
2022/04/15 05:01:18;;;;;;;38.60;26.42;;;;;;;-148.33;100.00;56587.81;5027932;28;20021;-57
2022/04/15 05:03:43;;;;;;;29.02;25.92;;;;;;;-148.33;100.00;56587.81;5027063;28;20056;-56
2022/04/15 05:06:09;;;;;;;31.90;25.58;;;;;;;-148.33;100.00;56587.81;5025902;28;20112;-56
2022/04/15 05:08:34;;;;;;;32.10;26.63;;;;;;;-148.33;100.00;56587.81;5031002;28;20021;-57
2022/04/15 05:10:59;;;;;;;28.80;25.70;;;;;;;-148.33;100.00;56587.81;5031167;28;20028;-56
2022/04/15 05:13:25;;;;;;;29.77;24.50;;;;;;;-148.33;100.00;56587.81;5031027;28;20031;-56
2022/04/15 05:15:50;;;;;;;25.00;22.30;;;;;;;-148.33;100.00;56587.81;5030813;28;20025;-56
2022/04/15 05:18:15;;;;;;;28.38;24.27;;;;;;;-148.33;100.00;56587.81;5030694;28;20087;-57
2022/04/15 05:20:41;;;;;;;26.85;23.95;;;;;;;-148.33;100.00;56587.81;5044213;28;20506;-57
2022/04/15 05:23:06;;;;;;;28.17;24.23;;;;;;;-148.33;100.00;56587.81;5048046;28;20025;-56
2022/04/15 05:25:31;;;;;;;30.77;24.40;;;;;;;-148.33;100.00;56587.81;5038066;28;20023;-56
2022/04/15 05:27:59;;;;;;;30.75;23.45;;;;;;;-148.33;100.00;56587.81;5034195;28;20297;-57
2022/04/15 05:30:25;;;;;;;28.13;24.30;;;;;;;-148.33;100.00;56587.81;5030851;28;20029;-57
2022/04/15 05:32:51;;;;;;;28.48;25.02;;;;;;;-148.33;100.00;56587.81;5030538;28;20246;-55
2022/04/15 05:35:16;;;;;;;27.60;24.63;;;;;;;-148.33;100.00;56587.81;5042976;28;20032;-56
2022/04/15 05:37:42;;;;;;;28.55;25.10;;;;;;;-148.33;100.00;56587.81;5050875;28;20052;-57
2022/04/15 05:40:08;;;;;;;29.58;25.13;;;;;;;-148.33;100.00;56587.81;5050471;28;20072;-56
2022/04/15 05:42:34;;;;;;;27.65;24.10;;;;;;;-148.33;100.00;56587.81;5050423;28;20070;-57
2022/04/15 05:44:59;;;;;;;29.73;24.67;;;;;;;-148.33;100.00;56587.81;5033301;28;20485;-56
2022/04/15 05:47:24;;;;;;;25.35;22.63;;;;;;;-148.33;100.00;56587.81;5029958;28;20037;-56
2022/04/15 05:49:49;;;;;;;23.80;21.23;;;;;;;-148.33;100.00;56587.81;5030768;28;20047;-57
2022/04/15 05:52:15;;;;;;;25.75;22.40;;;;;;;-148.33;100.00;56587.81;5030871;28;20021;-55
2022/04/15 05:54:40;;;;;;;23.20;20.70;;;;;;;-148.33;100.00;56587.81;5040421;28;20032;-56
2022/04/15 05:57:05;;;;;;;24.30;21.65;;;;;;;-148.33;100.00;56587.81;5030705;28;20061;-57
2022/04/15 05:59:31;;;;;;;23.52;20.38;;;;;;;-148.33;100.00;56587.81;5041663;28;20032;-57
2022/04/15 06:01:56;;;;;;;24.55;21.80;;;;;;;-148.33;100.00;56587.81;5033999;28;20804;-55
2022/04/15 06:04:21;;;;;;;24.98;22.35;;;;;;;-148.33;100.00;56587.81;5029972;28;20030;-57
2022/04/15 06:06:47;;;;;;;26.77;23.27;;;;;;;-148.33;100.00;56587.81;5030388;28;20057;-56
2022/04/15 06:09:13;;;;;;;24.52;21.88;;;;;;;-148.33;100.00;56587.81;5029937;28;20045;-57
2022/04/15 06:11:41;;;;;;;26.70;21.88;;;;;;;-148.33;100.00;56587.81;5031810;28;20033;-57
2022/04/15 06:14:06;;;;;;;25.83;23.02;;;;;;;-148.33;100.00;56587.81;5038973;28;20033;-57
2022/04/15 06:16:32;;;;;;;27.33;22.85;;;;;;;-148.33;100.00;56587.81;5040884;28;20436;-57
2022/04/15 06:19:00;;;;;;;25.13;21.98;;;;;;;-148.33;100.00;56587.81;5045138;28;20480;-54
2022/04/15 06:21:26;;;;;;;28.60;23.15;;;;;;;-148.33;100.00;56587.81;5033992;28;20405;-56
2022/04/15 06:23:51;;;;;;;26.70;22.85;;;;;;;-148.33;100.00;56587.81;5035038;28;20028;-57
2022/04/15 06:26:16;;;;;;;24.65;22.20;;;;;;;-148.33;100.00;56587.81;5041863;28;20023;-55
2022/04/15 06:28:42;;;;;;;23.70;21.25;;;;;;;-148.33;100.00;56587.81;5030497;28;20036;-58
2022/04/15 06:31:07;;;;;;;25.10;22.58;;;;;;;-148.33;100.00;56587.81;5035613;28;20029;-55
2022/04/15 06:33:33;;;;;;;22.67;20.25;;;;;;;-148.33;100.00;56587.81;5028827;28;20148;-56
2022/04/15 06:36:02;;;;;;;25.35;21.20;;;;;;;-148.33;100.00;56587.81;5028970;28;20033;-55
2022/04/15 06:38:27;;;;;;;25.02;21.63;;;;;;;-148.33;100.00;56587.81;5034890;28;20029;-53
2022/04/15 06:40:53;;;;;;;24.40;20.55;;;;;;;-148.33;100.00;56587.81;5029237;28;20033;-54
2022/04/15 06:43:18;;;;;;;23.17;20.05;;;;;;;-148.33;100.00;56587.81;5029474;28;20432;-55
2022/04/15 06:45:43;;;;;;;24.38;20.30;;;;;;;-148.33;100.00;56587.81;5029427;28;20021;-57
2022/04/15 06:48:09;;;;;;;23.00;20.55;;;;;;;-148.33;100.00;56587.81;5029517;28;20438;-57
2022/04/15 06:50:34;;;;;;;22.10;19.70;;;;;;;-148.33;100.00;56587.81;5029628;28;20382;-56
2022/04/15 06:52:59;;;;;;;25.02;19.58;;;;;;;-148.33;100.00;56587.81;5031578;28;20025;-57
2022/04/15 06:55:25;;;;;;;23.90;19.45;;;;;;;-148.33;100.00;56587.81;5028717;28;20029;-55
2022/04/15 06:57:50;;;;;;;22.15;19.70;;;;;;;-148.33;100.00;56587.81;5028540;28;20051;-56
2022/04/15 07:00:16;;;;;;;22.60;20.42;;;;;;;-148.33;100.00;56587.81;5029586;28;20033;-55
2022/04/15 07:02:41;;;;;;;25.75;20.77;;;;;;;-148.33;100.00;56587.81;5029335;28;20029;-56
2022/04/15 07:05:09;;;;;;;24.33;19.77;;;;;;;-148.33;100.00;56587.81;5028716;28;20026;-56
2022/04/15 07:07:37;;;;;;;21.90;19.58;;;;;;;-148.33;100.00;56587.81;5029328;28;20109;-55
2022/04/15 07:10:03;;;;;;;22.63;20.15;;;;;;;-148.33;100.00;56587.81;5038957;28;20033;-50
2022/04/15 07:12:28;;;;;;;23.80;20.38;;;;;;;-148.33;100.00;56587.81;5028542;28;20041;-56
2022/04/15 07:14:54;;;;;;;23.75;21.35;;;;;;;-148.33;100.00;56587.81;5029268;28;20053;-56
2022/04/15 07:17:19;;;;;;;24.75;20.27;;;;;;;-148.33;100.00;56587.81;5028218;28;20481;-56
2022/04/15 07:19:44;;;;;;;25.15;21.75;;;;;;;-148.33;100.00;56587.81;5028626;28;20025;-56
2022/04/15 07:22:10;;;;;;;25.60;20.52;;;;;;;-148.33;100.00;56587.81;5028429;28;20025;-55
2022/04/15 07:24:35;;;;;;;22.45;19.80;;;;;;;-148.33;100.00;56587.81;5029025;28;20026;-56
2022/04/15 07:27:00;;;;;;;25.95;20.48;;;;;;;-148.33;100.00;56587.81;5028462;28;20029;-55
2022/04/15 07:29:26;;;;;;;22.27;19.50;;;;;;;-148.33;100.00;56587.81;5027982;28;20523;-54
2022/04/15 07:31:52;;;;;;;21.83;19.40;;;;;;;-148.33;100.00;56587.81;5028475;28;20057;-55
2022/04/15 07:34:17;;;;;;;21.33;18.58;;;;;;;-148.33;100.00;56587.81;5028566;28;20021;-56
2022/04/15 07:36:43;;;;;;;20.33;18.10;;;;;;;-148.33;100.00;56587.81;5028933;28;20026;-56
2022/04/15 07:39:14;;;;;;;18.90;16.85;;;;;;;-148.33;100.00;56587.81;5028772;28;20144;-55
2022/04/15 07:41:40;;;;;;;18.55;16.52;;;;;;;-148.33;100.00;56587.81;5028425;28;20017;-55
2022/04/15 07:44:10;;;;;;;18.08;15.07;;;;;;;-148.33;100.00;56587.81;5027234;28;20033;-53
2022/04/15 07:46:37;;;;;;;19.42;16.95;;;;;;;-148.33;100.00;56587.81;5030959;28;20013;-56
2022/04/15 07:49:04;;;;;;;18.98;16.80;;;;;;;-148.33;100.00;56587.81;5029947;28;20475;-56
2022/04/15 07:51:30;;;;;;;19.95;17.15;;;;;;;-148.33;100.00;56587.81;5030384;28;20045;-54
2022/04/15 07:53:56;;;;;;;21.00;17.27;;;;;;;-148.33;100.00;56587.81;5026570;28;20087;-56
2022/04/15 07:56:21;;;;;;;19.27;16.90;;;;;;;-148.33;100.00;56587.81;5027278;28;20029;-57
2022/04/15 07:58:47;;;;;;;21.75;18.52;;;;;;;-148.33;100.00;56587.81;5027166;28;20026;-55
2022/04/15 08:01:12;;;;;;;19.65;16.27;;;;;;;-148.33;100.00;56587.81;5027543;28;20037;-56
2022/04/15 08:03:37;;;;;;;20.20;17.45;;;;;;;-148.33;100.00;56587.81;5027631;28;20027;-56
2022/04/15 08:06:03;;;;;;;20.02;17.25;;;;;;;-148.33;100.00;56587.81;5034005;28;20382;-55
2022/04/15 08:08:29;;;;;;;21.13;17.23;;;;;;;-148.33;100.00;56587.81;5039487;28;20548;-57
2022/04/15 08:10:55;;;;;;;16.63;14.90;;;;;;;-148.33;100.00;56587.81;5042380;28;20034;-56
2022/04/15 08:13:21;;;;;;;17.08;15.38;;;;;;;-148.33;100.00;56587.81;5043851;28;20521;-56
2022/04/15 08:15:50;;;;;;;15.05;13.07;;;;;;;-148.33;100.00;56587.81;5040519;28;20139;-52
2022/04/15 08:18:15;;;;;;;13.25;11.23;;;;;;;-148.33;100.00;56587.81;5037078;28;20036;-57
2022/04/15 08:20:40;;;;;;;12.98;11.73;;;;;;;-148.33;100.00;56587.81;5045554;28;20036;-54
2022/04/15 08:23:09;;;;;;;14.00;11.32;;;;;;;-148.33;100.00;56587.81;5045714;28;20024;-54
2022/04/15 08:25:34;;;;;;;13.38;12.05;;;;;;;-148.33;100.00;56587.81;5036234;28;20024;-56
2022/04/15 08:27:59;;;;;;;12.40;10.75;;;;;;;-148.33;100.00;56587.81;5026752;28;20100;-55
2022/04/15 08:30:25;;;;;;;12.35;10.50;;;;;;;-148.33;100.00;56587.81;5034287;28;20112;-55
2022/04/15 08:32:52;;;;;;;11.27;10.07;;;;;;;-148.33;100.00;56587.81;5046000;28;20424;-55
2022/04/15 08:35:17;;;;;;;10.48;9.48;;;;;;;-148.33;100.00;56587.81;5046202;28;20024;-56
2022/04/15 08:37:42;;;;;;;10.57;9.55;;;;;;;-148.33;100.00;56587.81;5046242;28;20036;-57
2022/04/15 08:40:11;;;;;;;11.88;9.85;;;;;;;-148.33;100.00;56587.81;5047042;28;20460;-55
2022/04/15 08:42:37;;;;;;;9.98;9.00;;;;;;;-148.33;100.00;56587.81;5045018;28;20021;-55
2022/04/15 08:45:05;;;;;;;10.25;9.35;;;;;;;-148.33;100.00;56587.81;5047105;28;20162;-54
2022/04/15 08:47:31;;;;;;;10.93;9.82;;;;;;;-148.33;100.00;56587.81;5049234;28;20020;-56
2022/04/15 08:49:58;;;;;;;11.20;9.77;;;;;;;-148.33;100.00;56587.81;5049752;28;20021;-55
2022/04/15 08:52:24;;;;;;;9.73;8.82;;;;;;;-148.33;100.00;56587.81;5049625;28;20047;-55
2022/04/15 08:54:50;;;;;;;10.40;9.32;;;;;;;-148.33;100.00;56587.81;5050308;28;20024;-56
2022/04/15 08:57:15;;;;;;;8.75;7.85;;;;;;;-148.33;100.00;56587.81;5048711;28;20402;-57
2022/04/15 08:59:40;;;;;;;11.65;8.98;;;;;;;-148.33;100.00;56587.81;5048250;28;20108;-57
2022/04/15 09:02:06;;;;;;;10.18;8.55;;;;;;;-148.33;100.00;56587.81;5048107;28;20017;-57
2022/04/15 09:04:32;;;;;;;10.68;8.88;;;;;;;-148.33;100.00;56587.81;5047514;28;20468;-56
2022/04/15 09:06:59;;;;;;;10.32;9.30;;;;;;;-148.33;100.00;56587.81;5041898;28;20071;-56
2022/04/15 09:09:32;;;;;;;9.77;8.80;;;;;;;-148.33;100.00;56587.81;5046452;28;20023;-56
2022/04/15 09:11:59;;;;;;;9.38;8.57;;;;;;;-148.33;100.00;56587.81;5044845;28;20024;-57
2022/04/15 09:14:25;;;;;;;9.10;8.20;;;;;;;-148.33;100.00;56587.81;5047557;28;20047;-56
2022/04/15 09:16:51;;;;;;;9.18;8.45;;;;;;;-148.33;100.00;56587.81;5046636;28;20024;-57
2022/04/15 09:19:17;;;;;;;9.43;8.52;;;;;;;-148.33;100.00;56587.81;5049800;28;20116;-56
2022/04/15 09:21:58;;;;;;;8.50;7.70;;;;;;;-148.33;100.00;56587.81;5050278;28;20025;-57
2022/04/15 09:24:30;;;;;;;10.02;9.13;;;;;;;-148.33;100.00;56587.81;5050410;28;20137;-55
2022/04/15 09:26:55;;;;;;;8.18;7.38;;;;;;;-148.33;100.00;56587.81;5043488;28;20075;-55
2022/04/15 09:29:21;;;;;;;7.72;7.03;;;;;;;-148.33;100.00;56587.81;5046384;28;20455;-55
2022/04/15 09:31:46;;;;;;;8.73;7.82;;;;;;;-148.33;100.00;56587.81;5043872;28;20052;-57
2022/04/15 09:34:12;;;;;;;8.75;7.90;;;;;;;-148.33;100.00;56587.81;5046297;28;20035;-54
2022/04/15 09:36:38;;;;;;;8.13;7.32;;;;;;;-148.33;100.00;56587.81;5049069;28;20377;-57
2022/04/15 09:39:12;;;;;;;7.40;6.70;;;;;;;-148.33;100.00;56587.81;5048837;28;20056;-55
2022/04/15 09:41:57;;;;;;;7.53;6.70;;;;;;;-148.33;100.00;56587.81;5048706;28;20032;-55
2022/04/15 09:44:31;;;;;;;7.57;6.88;;;;;;;-148.33;100.00;56587.81;5046430;28;20488;-56
2022/04/15 09:46:57;;;;;;;8.15;7.35;;;;;;;-148.33;100.00;56587.81;5045727;28;20031;-57
2022/04/15 09:49:25;;;;;;;7.70;6.93;;;;;;;-148.33;100.00;56587.81;5046900;28;20032;-56
2022/04/15 09:51:52;;;;;;;7.95;7.25;;;;;;;-148.33;100.00;56587.81;5049711;28;20033;-57
2022/04/15 09:54:24;;;;;;;8.80;7.15;;;;;;;-148.33;100.00;56587.81;5049728;28;20653;-56
2022/04/15 09:56:52;;;;;;;8.88;7.97;;;;;;;-148.33;100.00;56587.81;5050144;28;20060;-56
2022/04/15 09:59:23;;;;;;;8.18;7.32;;;;;;;-148.33;100.00;56587.81;5050352;28;20512;-55
2022/04/15 10:01:58;;;;;;;7.95;7.15;;;;;;;-148.33;100.00;56587.81;5049184;28;20128;-57
2022/04/15 10:04:24;;;;;;;7.45;6.75;;;;;;;-148.33;100.00;56587.81;5049801;28;20037;-57
2022/04/15 10:06:50;;;;;;;7.85;7.10;;;;;;;-148.33;100.00;56587.81;5049218;28;20139;-57
2022/04/15 10:09:15;;;;;;;8.90;7.32;;;;;;;-148.33;100.00;56587.81;5049793;28;20443;-57
2022/04/15 10:11:44;;;;;;;7.78;7.05;;;;;;;-148.33;100.00;56587.81;5050103;28;20025;-57
2022/04/15 10:14:10;;;;;;;7.90;7.10;;;;;;;-148.33;100.00;56587.81;5050051;28;20389;-57
2022/04/15 10:16:38;;;;;;;7.75;6.75;;;;;;;-148.33;100.00;56587.81;5049940;28;20021;-57
2022/04/15 10:19:05;;;;;;;7.93;7.13;;;;;;;-148.33;100.00;56587.81;5049855;28;20025;-57
2022/04/15 10:21:37;;;;;;;7.47;6.78;;;;;;;-148.33;100.00;56587.81;5050009;28;20021;-57
2022/04/15 10:24:03;;;;;;;8.38;6.22;;;;;;;-148.33;100.00;56587.81;5050138;28;20097;-57
2022/04/15 10:26:39;;;;;;;7.22;6.53;;;;;;;-148.33;100.00;56587.81;5050096;28;20562;-57
2022/04/15 10:29:05;;;;;;;6.90;5.85;;;;;;;-148.33;100.00;56587.81;5049543;28;20480;-57
2022/04/15 10:31:40;;;;;;;5.95;5.40;;;;;;;-148.33;100.00;56587.81;5049564;28;20067;-56
2022/04/15 10:34:14;;;;;;;5.93;5.43;;;;;;;-148.33;100.00;56587.81;5049623;28;20759;-57
2022/04/15 10:36:50;;;;;;;8.07;6.75;;;;;;;-148.33;100.00;56587.81;5049244;28;20029;-56
2022/04/15 10:39:24;;;;;;;6.68;6.05;;;;;;;-148.33;100.00;56587.81;5046341;28;20106;-57
2022/04/15 10:41:51;;;;;;;6.65;5.97;;;;;;;-148.33;100.00;56587.81;5047947;28;20024;-57
2022/04/15 10:44:28;;;;;;;6.68;6.10;;;;;;;-148.33;100.00;56587.81;5048328;28;20062;-55
2022/04/15 10:46:59;;;;;;;6.60;6.03;;;;;;;-148.33;100.00;56587.81;5042334;28;20167;-56
2022/04/15 10:49:27;;;;;;;6.95;5.55;;;;;;;-148.33;100.00;56587.81;5049357;28;20516;-56
2022/04/15 10:51:59;;;;;;;6.15;5.63;;;;;;;-148.33;100.00;56587.81;5032564;28;20083;-55
2022/04/15 10:54:36;;;;;;;5.63;5.05;;;;;;;-148.33;100.00;56587.81;5047148;28;20033;-57